x

Nantucket Sound (44020) Wave Buoy

11:50pm - Mon 28th Jul 2014 All times are EDT. -4 hours from GMT.

  • Sig Wave height 2.0ft
  • Swell Direction
  • Peak Period 3s
  • Average Period 3s
  • Wind
    22mph, 27mph gusts
  • Sea Temp 72°f
  • Air Temp 72°f
  • Sea Pressure 1001.6mb
  • Nantucket Sound
  • Nantucket Sound

More Historic Weather Station data

Upgrade to MSW Pro to gain access to the past 30 days of data for over 8000 Wavebouys and Weather Stations around the globe.

Join Pro

Comparision Forecast

View Surf forecast
   
Mon 07/28 11:50pm 2ft 3s 3s 22 27 mph 1001.6mb 72f 72f
10:50pm 2.5ft 3s 3s 25 27 mph 1001.7mb 72f 72f
9:50pm 2.5ft 3s 3s 25 29 mph 1001.2mb 72f 72f
8:50pm  -   -   -  25 29 mph 1000.9mb 72f 72f
7:50pm 2.5ft 3s 3s 22 27 mph 1000.6mb 72f 72f
6:50pm 2ft 3s 3s 22 27 mph 1000.2mb 71f 72f
5:50pm 1.6ft 3s 3s 18 22 mph 999.7mb 72f 72f
4:50pm 2ft 3s 3s 18 22 mph 999.6mb 72f 72f
3:50pm 2.5ft 3s 3s 18 22 mph 999.4mb 72f 73f
2:50pm 2.5ft 3s 4s 20 25 mph 999.4mb 72f 74f
1:50pm 2.5ft 4s 4s 20 25 mph 1000.1mb 72f 74f
12:50pm 3ft 4s 4s 22 27 mph 1000.4mb 72f 73f
11:50am 3ft 4s 4s 22 27 mph 1001.4mb 72f 73f
10:50am 2.5ft 4s 3s 25 29 mph 1001.1mb 71f 71f
9:50am 2ft 4s 3s 25 31 mph 1001.3mb 71f 72f
8:50am 1.6ft 3s 3s 20 22 mph 1002.9mb 71f 72f
7:50am 1.3ft 3s 3s 18 22 mph 1003.4mb 70f 71f
6:50am 1ft 3s 3s 13 16 mph 1003.8mb 69f 71f
5:50am 1.3ft 3s 3s 13
mph
1004.1mb 69f 70f
4:50am 1.3ft 3s 3s 18 20 mph 1004.2mb 70f 71f
3:50am 1.3ft 3s 3s 16 18 mph 1004.6mb 71f 70f
2:50am 1ft 3s 3s 16 20 mph 1004.5mb 72f 70f
1:50am 1.3ft 3s 3s 13 18 mph 1005.1mb 71f 71f
12:50am 1.3ft 3s 3s 13 16 mph 1005.9mb 71f 71f
Sun 07/27 11:50pm 1.3ft 3s 3s 13 16 mph 1006.5mb 71f 71f
10:50pm 1.3ft 3s 3s 16 18 mph 1006.3mb 72f 71f
9:50pm 1.3ft 3s 3s 16 18 mph 1006.9mb 72f 71f
8:50pm 1.3ft 3s 3s 18 22 mph 1006.9mb 71f 71f
7:50pm 1.6ft 6s 3s 18 20 mph 1006.4mb 71f 71f
6:50pm 1.6ft 3s 3s 18 22 mph 1006.6mb 71f 71f
5:50pm 1.6ft 3s 3s 18 22 mph 1006.7mb 71f 71f
4:50pm 1.6ft 3s 3s 20 22 mph 1007.2mb 71f 72f
3:50pm 1.6ft 3s 3s 18 22 mph 1007.8mb 72f 72f
2:50pm 1.6ft 3s 3s 18 20 mph 1008mb 72f 72f
1:50pm 1.6ft 3s 3s 18 20 mph 1009.2mb 72f 72f
12:50pm 1.6ft 3s 3s 18 20 mph 1009.4mb 72f 71f
11:50am 1.6ft 3s 3s 16 20 mph 1010mb 72f 71f
10:50am 1.3ft 3s 3s 18 20 mph 1010.4mb 72f 70f
9:50am 1ft 3s 3s 16 20 mph 1010.4mb 71f 71f
8:50am 1ft 3s 3s 16 18 mph 1010.7mb 71f 71f
7:50am 1ft 3s 3s 16 18 mph 1011.3mb 70f 71f
6:50am 1ft 2s 3s 16 18 mph 1011.4mb 69f 70f
5:50am 1ft 2s 3s 13 16 mph 1011.5mb 69f 70f
4:50am 0.7ft  -  3s 13 16 mph 1012.1mb 69f 70f
3:50am 0.7ft  -  3s 11 13 mph 1012.3mb 71f 70f
2:50am 0.7ft  -  3s 11 16 mph 1012.3mb 71f 70f
1:50am 1ft 3s 3s 11 13 mph 1012.6mb 71f 70f
12:50am 1ft 2s 3s 13 16 mph 1012.8mb 71f 70f
Sat 07/26 11:50pm 1ft 8s 3s 13 16 mph 1013.5mb 71f 70f
10:50pm 1ft 2s 3s 13 16 mph 1013.8mb 71f 70f
9:50pm 1ft 6s 3s 16 20 mph 1013.8mb 72f 70f
8:50pm 1ft 3s 3s 16 18 mph 1013.6mb 72f 70f
7:50pm 1.3ft 3s 3s 18 22 mph 1013.5mb 71f 71f
6:50pm 1.6ft 3s 3s 16 18 mph 1013.5mb 71f 71f
5:50pm 1.6ft 3s 3s 18 20 mph 1013.8mb 71f 71f
4:50pm 1.3ft 3s 3s 16 20 mph 1013.9mb 71f 71f
3:50pm 1.3ft 3s 3s 18 20 mph 1014.2mb 71f 70f
2:50pm 1.3ft 3s 3s 16 20 mph 1014.3mb 72f 71f
1:50pm 1.3ft 3s 3s 16 18 mph 1014.8mb 72f 70f
12:50pm 1.3ft 3s 3s 16 18 mph 1015mb 72f 70f
11:50am 1ft 2s 3s 16 18 mph 1015.6mb 72f 70f
10:50am 1ft 6s 3s 16
mph
1015.9mb 71f 70f
9:50am 0.7ft  -  3s 13 16 mph 1016.1mb 71f 69f
8:50am 0.7ft  -  3s 13 16 mph 1016.4mb 71f 70f
7:50am 1ft 3s 3s 11
mph
1016.2mb 70f 70f
6:50am 1ft 3s 3s 11 13 mph 1015.9mb 69f 70f
5:50am 1.3ft 3s 3s 13 16 mph 1015.8mb 69f 69f
4:50am 1ft 3s 3s 13
mph
1015.5mb 69f 69f
3:50am 1ft 3s 3s 11 13 mph 1015.3mb 70f 69f
2:50am 1.3ft 3s 3s 13 16 mph 1015.3mb 71f 70f
1:50am 1.3ft 3s 3s 13 18 mph 1015.6mb 71f 70f
12:50am 1ft 3s 3s 16 18 mph 1015.7mb 71f 70f
Fri 07/25 11:50pm 1ft 3s 3s 16 20 mph 1015.9mb 71f 69f
10:50pm 1ft 8s 3s 13 16 mph 1015.6mb 71f 69f
9:50pm 1ft 6s 3s 13 16 mph 1015.5mb 71f 69f
8:50pm 0.7ft  -  4s 16 18 mph 1015.2mb 72f 69f
7:50pm 0.7ft  -  4s 13
mph
1014.6mb 72f 69f
6:50pm 0.7ft  -  3s 11 13 mph 1014.5mb 72f 69f
5:50pm 0.7ft  -  4s 11 13 mph 1014.6mb 72f 70f
4:50pm 1ft 5s 4s 7
mph
1014.5mb 72f 70f
3:50pm 0.7ft  -  4s 4 7 mph 1014.6mb 72f 68f
2:50pm 0.7ft  -  3s 4
mph
1014.1mb 72f 68f
1:50pm 1ft 8s 3s 4
mph
1014.2mb 72f 67f
12:50pm 1ft 3s 3s 4 7 mph 1014.5mb 72f 68f
11:50am 1ft 4s 3s 11
mph
1014.5mb 71f 69f
10:50am 1ft 6s 3s 4
mph
1014.7mb 71f 68f
9:50am 1.3ft 3s 3s 9 11 mph 1014.1mb 71f 67f
8:50am 1.3ft 3s 3s 13 16 mph 1013.5mb 70f 66f
7:50am 1.6ft 3s 3s 13 18 mph 1013.5mb 70f 66f
6:50am 1.6ft 3s 3s 16 18 mph 1013mb 69f 67f
5:50am 1.3ft 3s 3s 16 18 mph 1012.5mb 69f 68f